Time;durP1;ratioP1;P1;durP2;ratioP2;P2;SDS_P1;SDS_P2;PMS_P1;PMS_P2;Temp;Humidity;BMP_temperature;BMP_pressure;BME280_temperature;BME280_humidity;BME280_pressure;Samples;Min_cycle;Max_cycle;Signal;HPM_P1;HPM_P2
2023/05/10 00:02:27;;;;;;;3.28;2.08;;;;;;;12.14;100.00;100612.78;5542955;32;33981;-68
2023/05/10 00:05:31;;;;;;;2.87;2.00;;;;;;;12.03;100.00;100610.50;5528534;32;34598;-68
2023/05/10 00:08:34;;;;;;;5.95;2.33;;;;;;;12.06;100.00;100606.66;5528469;32;33807;-67
2023/05/10 00:11:36;;;;;;;3.87;1.87;;;;;;;12.05;100.00;100602.34;5528553;32;33640;-68
2023/05/10 00:14:39;;;;;;;4.47;2.20;;;;;;;12.06;100.00;100596.84;5528450;32;33613;-68
2023/05/10 00:17:42;;;;;;;5.75;2.50;;;;;;;11.99;100.00;100595.91;5528295;32;33842;-68
2023/05/10 00:20:45;;;;;;;4.30;2.50;;;;;;;11.96;100.00;100606.03;5528390;32;34946;-68
2023/05/10 00:23:48;;;;;;;4.87;2.25;;;;;;;11.71;100.00;100597.28;5528207;32;33606;-68
2023/05/10 00:26:51;;;;;;;5.15;2.42;;;;;;;11.68;100.00;100602.91;5528239;32;33831;-69
2023/05/10 00:29:54;;;;;;;4.10;2.50;;;;;;;11.46;100.00;100601.81;5527459;32;33621;-69
2023/05/10 00:32:56;;;;;;;7.65;2.97;;;;;;;11.27;100.00;100591.53;5527894;32;34010;-67
2023/05/10 00:35:59;;;;;;;4.03;2.55;;;;;;;11.13;100.00;100602.81;5527675;32;33958;-69
2023/05/10 00:39:03;;;;;;;7.05;2.60;;;;;;;11.18;100.00;100588.03;5528518;32;34480;-68
2023/05/10 00:42:06;;;;;;;3.45;2.65;;;;;;;11.12;100.00;100591.38;5528149;32;34474;-68
2023/05/10 00:45:09;;;;;;;3.60;2.50;;;;;;;10.98;100.00;100596.50;5527997;32;33822;-69
2023/05/10 00:48:13;;;;;;;3.37;2.60;;;;;;;10.80;100.00;100588.66;5527908;32;33584;-69
2023/05/10 00:51:15;;;;;;;4.50;2.67;;;;;;;10.61;100.00;100594.28;5527862;32;34554;-69
2023/05/10 00:54:19;;;;;;;4.37;2.62;;;;;;;10.45;100.00;100597.75;5528249;32;34485;-68
2023/05/10 00:57:22;;;;;;;5.68;2.72;;;;;;;10.49;100.00;100592.94;5527955;32;34177;-69
2023/05/10 01:00:25;;;;;;;5.90;2.85;;;;;;;10.29;100.00;100587.91;5527387;32;33598;-68
2023/05/10 01:03:28;;;;;;;6.87;2.95;;;;;;;10.18;100.00;100590.84;5527711;32;33585;-68
2023/05/10 01:06:32;;;;;;;5.37;2.95;;;;;;;10.12;100.00;100591.44;5527521;32;34730;-68
2023/05/10 01:09:34;;;;;;;5.07;3.28;;;;;;;10.02;100.00;100591.56;5527639;32;34099;-69
2023/05/10 01:12:40;;;;;;;4.28;2.87;;;;;;;9.93;100.00;100586.37;5527725;32;34560;-68
2023/05/10 01:15:44;;;;;;;3.92;3.12;;;;;;;9.90;100.00;100592.00;5526961;32;34407;-69
2023/05/10 01:18:48;;;;;;;7.00;3.15;;;;;;;9.84;100.00;100585.53;5527528;32;33851;-69
2023/05/10 01:22:19;;;;;;;7.50;2.90;;;;;;;9.80;100.00;100584.19;5527282;32;34124;-69
2023/05/10 01:25:41;;;;;;;3.47;2.80;;;;;;;9.81;100.00;100588.50;5527310;32;33993;-68
2023/05/10 01:29:11;;;;;;;5.82;3.05;;;;;;;9.77;100.00;100581.03;5527256;32;33765;-69
2023/05/10 01:32:24;;;;;;;;;;;;;;;9.83;100.00;100586.50;5527586;32;35072;-68
2023/05/10 01:35:30;;;;;;;4.12;3.03;;;;;;;9.86;100.00;100580.91;5527182;32;34095;-69
2023/05/10 01:38:42;;;;;;;5.15;3.03;;;;;;;9.99;100.00;100573.34;5527011;32;34397;-69
2023/05/10 01:41:54;;;;;;;8.23;3.28;;;;;;;10.05;100.00;100579.84;5526325;32;33646;-68
2023/05/10 01:45:12;;;;;;;9.93;3.33;;;;;;;10.10;100.00;100576.69;5527384;32;34531;-69
2023/05/10 01:48:17;;;;;;;3.87;3.10;;;;;;;10.12;100.00;100580.84;5529965;32;34284;-69
2023/05/10 01:51:25;;;;;;;5.97;3.03;;;;;;;10.12;100.00;100580.84;5528940;32;33848;-69
2023/05/10 01:54:29;;;;;;;6.47;2.92;;;;;;;10.17;100.00;100575.09;5529853;32;34215;-69
2023/05/10 01:57:34;;;;;;;4.28;3.17;;;;;;;10.20;100.00;100578.28;5529618;32;33758;-69
2023/05/10 02:00:40;;;;;;;3.47;2.87;;;;;;;10.32;100.00;100576.97;5529572;32;34805;-69
2023/05/10 02:03:44;;;;;;;3.37;2.78;;;;;;;10.30;100.00;100572.84;5529502;32;34716;-69
2023/05/10 02:06:47;;;;;;;7.37;3.17;;;;;;;10.27;100.00;100573.97;5529515;32;33684;-69
2023/05/10 02:09:51;;;;;;;6.18;3.03;;;;;;;10.27;100.00;100571.31;5528865;32;34035;-69
2023/05/10 02:12:58;;;;;;;7.05;3.00;;;;;;;10.39;100.00;100564.75;5529411;32;35239;-68
2023/05/10 02:16:03;;;;;;;5.32;3.08;;;;;;;10.52;100.00;100563.44;5529500;32;33582;-69
2023/05/10 02:19:08;;;;;;;3.15;2.80;;;;;;;10.72;100.00;100552.34;5529414;32;33795;-68
2023/05/10 02:22:12;;;;;;;4.47;3.08;;;;;;;11.11;100.00;100562.31;5529455;32;34665;-68
2023/05/10 02:25:15;;;;;;;4.43;3.25;;;;;;;11.18;100.00;100556.16;5529077;32;34047;-69
2023/05/10 02:28:20;;;;;;;4.68;3.00;;;;;;;11.23;100.00;100567.09;5528358;32;33801;-68
2023/05/10 02:31:23;;;;;;;9.93;3.33;;;;;;;11.32;100.00;100565.28;5529342;32;34343;-68
2023/05/10 02:34:27;;;;;;;5.75;3.28;;;;;;;11.42;100.00;100555.31;5528393;32;33757;-68
2023/05/10 02:37:32;;;;;;;6.97;3.12;;;;;;;11.41;100.00;100551.00;5529064;32;33851;-69
2023/05/10 02:40:36;;;;;;;6.80;3.20;;;;;;;11.39;100.00;100557.47;5529199;32;34048;-69
2023/05/10 02:43:40;;;;;;;7.57;3.33;;;;;;;11.37;100.00;100559.47;5529193;32;33847;-69
2023/05/10 02:46:43;;;;;;;5.25;2.90;;;;;;;11.41;100.00;100563.44;5529195;32;33736;-69
2023/05/10 02:49:47;;;;;;;5.68;3.22;;;;;;;11.51;100.00;100559.63;5529376;32;33851;-69
2023/05/10 02:52:54;;;;;;;3.85;3.17;;;;;;;11.47;100.00;100560.97;5528982;32;33683;-68
2023/05/10 02:56:01;;;;;;;8.50;2.72;;;;;;;11.52;100.00;100555.13;5528808;32;34001;-69
2023/05/10 02:59:03;;;;;;;5.40;2.90;;;;;;;11.62;100.00;100561.06;5528729;32;34485;-68
2023/05/10 03:02:07;;;;;;;5.10;3.17;;;;;;;11.68;100.00;100563.88;5529054;32;33697;-69
2023/05/10 03:05:09;;;;;;;6.85;3.03;;;;;;;11.67;100.00;100564.03;5528923;32;34551;-69
2023/05/10 03:08:12;;;;;;;4.87;3.12;;;;;;;11.60;100.00;100563.91;5528960;32;34935;-68
2023/05/10 03:11:40;;;;;;;5.30;2.97;;;;;;;11.65;100.00;100564.22;5528985;32;33831;-68
2023/05/10 03:14:55;;;;;;;6.72;3.20;;;;;;;11.66;100.00;100563.25;5528964;32;34509;-68
2023/05/10 03:18:05;;;;;;;8.80;3.10;;;;;;;11.56;100.00;100562.59;5528979;32;33602;-68
2023/05/10 03:21:12;;;;;;;10.23;3.58;;;;;;;11.49;100.00;100555.47;5527987;32;33820;-68
2023/05/10 03:24:18;;;;;;;4.87;2.95;;;;;;;11.42;100.00;100560.62;5530603;32;33610;-68
2023/05/10 03:27:25;;;;;;;7.32;3.25;;;;;;;11.34;100.00;100568.59;5528685;32;34105;-67
2023/05/10 03:30:29;;;;;;;8.02;3.70;;;;;;;11.28;100.00;100566.59;5528728;32;33817;-69
2023/05/10 03:33:32;;;;;;;7.78;3.10;;;;;;;11.19;100.00;100562.31;5528604;32;35245;-68
2023/05/10 03:36:34;;;;;;;4.97;3.10;;;;;;;11.06;100.00;100560.16;5528766;32;33679;-67
2023/05/10 03:39:38;;;;;;;4.45;3.55;;;;;;;11.08;100.00;100558.19;5528757;32;34553;-68
2023/05/10 03:42:41;;;;;;;7.03;3.30;;;;;;;11.15;100.00;100559.16;5528753;32;33992;-67
2023/05/10 03:45:44;;;;;;;3.80;3.15;;;;;;;11.17;100.00;100559.84;5528601;32;34533;-67
2023/05/10 03:48:46;;;;;;;4.65;3.10;;;;;;;11.16;100.00;100552.84;5528569;32;34771;-68
2023/05/10 03:51:49;;;;;;;8.70;3.58;;;;;;;11.25;100.00;100558.97;5528500;32;33718;-67
2023/05/10 03:54:52;;;;;;;8.52;3.72;;;;;;;11.31;100.00;100560.97;5528550;32;34449;-67
2023/05/10 03:57:55;;;;;;;5.15;3.75;;;;;;;11.28;100.00;100559.47;5528750;32;34710;-68
2023/05/10 04:00:58;;;;;;;5.05;3.60;;;;;;;11.12;100.00;100562.16;5528424;32;34879;-68
2023/05/10 04:04:01;;;;;;;4.90;3.45;;;;;;;11.02;100.00;100558.00;5528585;32;33738;-68
2023/05/10 04:07:06;;;;;;;6.12;3.45;;;;;;;11.09;100.00;100554.50;5528363;32;34048;-68
2023/05/10 04:10:09;;;;;;;6.43;3.42;;;;;;;11.14;100.00;100567.28;5527168;32;34419;-68
2023/05/10 04:13:11;;;;;;;6.37;3.50;;;;;;;11.34;100.00;100566.78;5528393;32;33744;-68
2023/05/10 04:16:14;;;;;;;5.93;3.80;;;;;;;11.44;100.00;100560.44;5528272;32;34552;-68
2023/05/10 04:19:17;;;;;;;5.70;3.30;;;;;;;11.50;100.00;100557.97;5528347;32;34449;-68
2023/05/10 04:22:20;;;;;;;8.50;3.50;;;;;;;11.50;100.00;100555.28;5528315;32;33867;-68
2023/05/10 04:25:23;;;;;;;8.40;3.35;;;;;;;11.48;100.00;100557.28;5528204;32;34516;-68
2023/05/10 04:28:27;;;;;;;4.62;3.37;;;;;;;11.56;100.00;100556.44;5528118;32;33962;-68
2023/05/10 04:31:29;;;;;;;5.60;3.45;;;;;;;11.41;100.00;100561.63;5527835;32;33852;-68
2023/05/10 04:34:33;;;;;;;9.13;3.62;;;;;;;11.45;100.00;100562.13;5528403;32;34009;-68
2023/05/10 04:37:36;;;;;;;5.78;3.95;;;;;;;11.36;100.00;100569.28;5528101;32;34350;-68
2023/05/10 04:40:39;;;;;;;5.00;3.85;;;;;;;11.41;100.00;100569.59;5527650;32;34796;-67
2023/05/10 04:43:41;;;;;;;9.27;3.95;;;;;;;11.34;100.00;100569.44;5528092;32;33758;-68
2023/05/10 04:46:44;;;;;;;5.10;3.40;;;;;;;11.31;100.00;100567.13;5527903;32;33987;-68
2023/05/10 04:49:47;;;;;;;5.65;4.10;;;;;;;11.20;100.00;100570.09;5528329;32;33706;-67
2023/05/10 04:52:50;;;;;;;7.75;3.83;;;;;;;11.10;100.00;100565.97;5527631;32;34531;-68
2023/05/10 04:55:54;;;;;;;8.60;3.90;;;;;;;11.18;100.00;100564.12;5527125;32;34522;-68
2023/05/10 04:58:57;;;;;;;8.25;3.92;;;;;;;11.30;100.00;100559.31;5527498;32;34275;-67
2023/05/10 05:02:00;;;;;;;8.57;4.10;;;;;;;11.44;100.00;100568.41;5527733;32;33679;-68
2023/05/10 05:05:04;;;;;;;8.77;4.10;;;;;;;11.52;100.00;100571.88;5526819;32;33888;-69
2023/05/10 05:08:07;;;;;;;6.45;3.45;;;;;;;11.67;100.00;100570.19;5527400;32;33980;-68
2023/05/10 05:11:10;;;;;;;5.30;3.65;;;;;;;11.74;100.00;100568.56;5527510;32;34686;-69
2023/05/10 05:14:12;;;;;;;6.25;3.90;;;;;;;11.82;100.00;100572.16;5527502;32;34090;-68
2023/05/10 05:17:15;;;;;;;6.55;3.87;;;;;;;11.82;100.00;100575.66;5540278;32;33748;-69
2023/05/10 05:20:18;;;;;;;6.07;3.70;;;;;;;12.00;100.00;100576.28;5547343;32;34528;-68
2023/05/10 05:23:24;;;;;;;5.82;3.70;;;;;;;11.97;100.00;100579.28;5549021;32;34648;-67
2023/05/10 05:26:27;;;;;;;5.70;4.10;;;;;;;11.76;100.00;100582.47;5546711;32;34627;-67
2023/05/10 05:29:30;;;;;;;5.47;4.15;;;;;;;11.94;100.00;100579.63;5542125;32;33894;-68
2023/05/10 05:32:33;;;;;;;7.97;4.22;;;;;;;12.21;100.00;100578.34;5545320;32;34778;-68
2023/05/10 05:35:35;;;;;;;6.90;3.92;;;;;;;12.28;100.00;100575.81;5543407;32;34639;-68
2023/05/10 05:38:38;;;;;;;7.70;4.03;;;;;;;12.54;100.00;100584.31;5541120;32;33805;-68
2023/05/10 05:41:41;;;;;;;10.60;4.40;;;;;;;12.43;100.00;100592.72;5543695;32;34495;-69
2023/05/10 05:44:44;;;;;;;12.57;4.60;;;;;;;12.68;100.00;100591.56;5547114;32;34606;-67
2023/05/10 05:47:47;;;;;;;7.82;3.80;;;;;;;13.04;100.00;100599.78;5540913;32;34573;-69
2023/05/10 05:50:49;;;;;;;7.22;4.10;;;;;;;13.06;98.04;100592.47;5548130;32;34278;-68
2023/05/10 05:53:52;;;;;;;7.12;4.37;;;;;;;13.08;99.08;100595.75;5541638;32;33883;-68
2023/05/10 05:56:56;;;;;;;11.70;4.12;;;;;;;13.08;98.54;100593.09;5547786;32;33769;-68
2023/05/10 06:00:03;;;;;;;7.15;3.92;;;;;;;12.94;96.87;100604.53;5547584;32;33957;-68
2023/05/10 06:03:13;;;;;;;7.57;3.87;;;;;;;12.92;97.03;100603.88;5549126;32;34021;-68
2023/05/10 06:06:17;;;;;;;6.28;3.90;;;;;;;12.79;98.21;100603.63;5548604;32;33753;-68
2023/05/10 06:09:19;;;;;;;7.30;4.03;;;;;;;12.89;97.78;100605.06;5545192;32;33965;-68
2023/05/10 06:12:22;;;;;;;7.85;3.87;;;;;;;13.15;96.57;100601.25;5536865;32;33928;-68
2023/05/10 06:15:25;;;;;;;8.50;4.37;;;;;;;13.21;96.52;100598.69;5538792;32;33929;-68
2023/05/10 06:18:28;;;;;;;6.70;4.05;;;;;;;13.52;95.08;100605.72;5526758;32;33212;-67
2023/05/10 06:21:31;;;;;;;11.75;3.70;;;;;;;13.52;94.48;100603.06;5538381;32;34349;-69
2023/05/10 06:24:34;;;;;;;6.62;3.95;;;;;;;13.43;95.30;100605.81;5534901;32;33964;-69
2023/05/10 06:27:36;;;;;;;6.95;3.92;;;;;;;13.52;93.52;100603.06;5540185;32;33314;-69
2023/05/10 06:30:39;;;;;;;7.37;3.92;;;;;;;13.54;92.71;100609.06;5534901;32;34173;-69
2023/05/10 06:33:42;;;;;;;6.32;3.75;;;;;;;13.90;94.11;100612.66;5536882;32;34653;-68
2023/05/10 06:36:45;;;;;;;11.90;3.83;;;;;;;14.23;89.39;100610.47;5537643;32;33628;-68
2023/05/10 06:39:48;;;;;;;8.02;4.57;;;;;;;14.13;90.63;100615.25;5539466;32;34148;-68
2023/05/10 06:42:51;;;;;;;10.35;4.10;;;;;;;14.10;90.02;100616.44;5539674;32;35696;-70
2023/05/10 06:45:54;;;;;;;8.25;3.87;;;;;;;14.13;88.25;100615.25;5548116;32;33868;-69
2023/05/10 06:48:56;;;;;;;7.53;3.47;;;;;;;14.35;88.10;100607.13;5532513;32;34452;-69
2023/05/10 06:51:59;;;;;;;6.45;4.00;;;;;;;14.93;85.20;100609.84;5533614;32;33625;-70
2023/05/10 06:55:22;;;;;;;7.70;3.97;;;;;;;14.85;83.98;100607.31;5538467;32;34618;-70
2023/05/10 06:58:24;;;;;;;9.57;3.87;;;;;;;14.73;85.11;100612.31;5546346;32;33937;-69
2023/05/10 07:01:27;;;;;;;5.78;3.85;;;;;;;14.42;86.04;100612.59;5546807;32;35019;-68
2023/05/10 07:04:30;;;;;;;5.70;3.78;;;;;;;13.85;90.05;100612.38;5528453;32;33762;-68
2023/05/10 07:07:32;;;;;;;11.15;4.20;;;;;;;14.75;86.38;100616.47;5528115;32;34793;-69
2023/05/10 07:10:35;;;;;;;14.70;7.72;;;;;;;14.86;84.00;100614.31;5531864;32;33969;-68
2023/05/10 07:13:41;;;;;;;5.70;4.30;;;;;;;15.33;84.76;100616.41;5537380;32;34040;-69
2023/05/10 07:16:44;;;;;;;8.15;4.03;;;;;;;16.57;75.91;100611.00;5537595;32;34543;-68
2023/05/10 07:19:47;;;;;;;5.00;3.53;;;;;;;16.33;76.17;100614.19;5536925;32;33794;-69
2023/05/10 07:22:51;;;;;;;4.57;3.12;;;;;;;17.17;68.56;100607.44;5536545;32;33677;-68
2023/05/10 07:25:54;;;;;;;4.95;3.35;;;;;;;16.94;67.51;100604.34;5540203;32;33856;-68
2023/05/10 07:28:57;;;;;;;5.18;3.33;;;;;;;16.61;68.85;100603.41;5538374;32;33984;-69
2023/05/10 07:32:00;;;;;;;7.50;3.53;;;;;;;16.57;70.86;100602.13;5536925;32;34065;-70
2023/05/10 07:35:03;;;;;;;4.82;3.62;;;;;;;17.79;66.59;100596.31;5531368;32;33919;-70
2023/05/10 07:38:06;;;;;;;6.32;3.40;;;;;;;17.70;64.46;100602.09;5547782;32;33998;-69
2023/05/10 07:41:09;;;;;;;7.00;3.25;;;;;;;17.99;62.97;100601.62;5543013;32;34598;-69
2023/05/10 07:44:12;;;;;;;5.28;3.05;;;;;;;18.83;59.39;100593.41;5533346;32;33514;-71
2023/05/10 07:47:14;;;;;;;3.90;3.05;;;;;;;20.07;54.39;100595.28;5529720;32;34662;-70
2023/05/10 07:50:18;;;;;;;7.20;2.78;;;;;;;20.22;52.63;100598.41;5530036;32;81389;-70
2023/05/10 07:53:21;;;;;;;4.78;2.80;;;;;;;20.82;51.19;100594.75;5530004;32;33919;-70
2023/05/10 07:56:29;;;;;;;6.05;2.95;;;;;;;20.48;51.50;100598.09;5531617;32;33675;-70
2023/05/10 07:59:32;;;;;;;6.78;2.92;;;;;;;20.51;51.23;100600.38;5536632;32;34017;-71
2023/05/10 08:02:36;;;;;;;8.50;2.75;;;;;;;20.19;51.81;100596.16;5536976;32;33687;-71
2023/05/10 08:05:40;;;;;;;5.68;2.83;;;;;;;18.48;56.33;100594.84;5539989;32;33892;-69
2023/05/10 08:08:43;;;;;;;5.22;2.67;;;;;;;19.43;54.92;100600.00;5534295;32;33892;-71
2023/05/10 08:11:46;;;;;;;5.85;3.10;;;;;;;19.31;55.18;100600.97;5528669;32;34180;-71
2023/05/10 08:14:48;;;;;;;3.72;2.80;;;;;;;18.10;58.93;100595.63;5528046;32;33695;-70
2023/05/10 08:17:52;;;;;;;7.95;2.83;;;;;;;18.83;55.98;100593.41;5528119;32;33802;-69
2023/05/10 08:20:55;;;;;;;2.67;2.22;;;;;;;17.81;59.83;100599.59;5528056;32;34049;-73
2023/05/10 08:23:58;;;;;;;4.53;2.72;;;;;;;17.23;62.76;100590.50;5528085;32;34249;-69
2023/05/10 08:27:00;;;;;;;4.20;2.55;;;;;;;16.95;62.50;100587.19;5528170;32;33562;-71
2023/05/10 08:30:03;;;;;;;59.33;4.68;;;;;;;18.55;57.22;100601.03;5528145;32;34527;-70
2023/05/10 08:33:06;;;;;;;27.65;3.28;;;;;;;19.04;54.69;100598.44;5527698;32;34083;-70
2023/05/10 08:36:09;;;;;;;4.00;2.28;;;;;;;19.16;53.38;100593.22;5527875;32;32632;-70
2023/05/10 08:39:12;;;;;;;8.25;2.65;;;;;;;18.01;56.52;100601.44;5527618;32;34307;-69
2023/05/10 08:42:35;;;;;;;7.90;2.87;;;;;;;18.62;56.32;100593.75;5529133;32;33779;-70
2023/05/10 08:45:41;;;;;;;18.23;3.12;;;;;;;19.17;54.51;100591.34;5546350;32;33917;-71
2023/05/10 08:48:49;;;;;;;5.10;2.87;;;;;;;20.10;52.55;100592.13;5536348;32;34000;-72
2023/05/10 08:51:55;;;;;;;14.63;2.65;;;;;;;20.03;50.00;100592.22;5545792;32;33715;-70
2023/05/10 08:54:58;;;;;;;7.15;2.35;;;;;;;21.64;47.76;100589.50;5546158;32;33677;-70
2023/05/10 08:58:00;;;;;;;7.22;2.67;;;;;;;22.04;45.51;100587.75;5546401;32;34599;-70
2023/05/10 09:01:04;;;;;;;3.85;2.42;;;;;;;20.23;48.99;100594.69;5542542;32;33688;-71
2023/05/10 09:04:07;;;;;;;21.00;3.37;;;;;;;19.37;50.81;100595.50;5537762;32;33973;-70
2023/05/10 09:07:11;;;;;;;4.55;2.45;;;;;;;18.93;52.34;100592.94;5545563;32;33517;-70
2023/05/10 09:10:15;;;;;;;6.05;2.30;;;;;;;19.21;51.90;100590.69;5546496;32;33711;-70
2023/05/10 09:13:18;;;;;;;8.90;2.10;;;;;;;19.39;52.20;100600.69;5546502;32;34360;-70
2023/05/10 09:16:21;;;;;;;5.47;2.40;;;;;;;22.40;45.78;100583.06;5542398;32;33832;-71
2023/05/10 09:19:24;;;;;;;4.82;2.28;;;;;;;23.67;42.13;100595.06;5531330;32;34172;-71
2023/05/10 09:22:27;;;;;;;14.70;2.50;;;;;;;22.84;42.14;100595.03;5536247;32;33767;-72
2023/05/10 09:25:30;;;;;;;4.18;2.30;;;;;;;21.63;43.05;100586.00;5526946;32;34047;-71
2023/05/10 09:28:57;;;;;;;5.25;2.00;;;;;;;21.88;45.01;100587.62;5524556;32;33866;-70
2023/05/10 09:32:00;;;;;;;3.53;2.10;;;;;;;23.45;41.18;100586.09;5526870;32;33288;-71
2023/05/10 09:35:11;;;;;;;4.82;2.25;;;;;;;22.73;40.26;100585.09;5540667;32;34119;-74
2023/05/10 09:38:14;;;;;;;10.60;2.87;;;;;;;20.83;46.59;100585.59;5537208;32;33857;-71
2023/05/10 09:41:18;;;;;;;13.85;2.10;;;;;;;22.99;42.14;100586.37;5536660;32;33743;-70
2023/05/10 09:44:21;;;;;;;9.07;2.40;;;;;;;24.12;38.62;100581.34;5543121;32;33933;-71
2023/05/10 09:47:25;;;;;;;9.27;2.22;;;;;;;24.43;38.39;100588.00;5536361;32;34414;-71
2023/05/10 09:50:30;;;;;;;2.85;2.20;;;;;;;24.49;37.73;100580.75;5541452;32;33597;-70
2023/05/10 09:53:32;;;;;;;2.80;1.90;;;;;;;23.88;37.66;100573.69;5538510;32;32606;-71
2023/05/10 09:56:38;;;;;;;3.85;2.10;;;;;;;23.97;38.12;100578.44;5540879;32;34804;-70
2023/05/10 09:59:43;;;;;;;10.10;1.92;;;;;;;26.25;35.11;100564.19;5532010;32;34887;-72
2023/05/10 10:03:06;;;;;;;4.78;2.00;;;;;;;26.72;34.09;100567.59;5540584;32;34529;-73
2023/05/10 10:06:09;;;;;;;3.08;1.73;;;;;;;27.19;33.21;100572.03;5529554;32;33841;-71
2023/05/10 10:09:25;;;;;;;4.10;1.60;;;;;;;26.00;34.56;100564.88;5539657;32;34485;-73
2023/05/10 10:12:28;;;;;;;2.75;1.75;;;;;;;25.90;33.96;100549.34;5522417;32;34347;-72
2023/05/10 10:15:32;;;;;;;2.33;2.10;;;;;;;24.90;35.38;100557.56;5546403;32;34300;-72
2023/05/10 10:18:39;;;;;;;3.05;1.98;;;;;;;24.85;36.01;100549.34;5547662;32;33936;-72
2023/05/10 10:21:42;;;;;;;3.72;1.95;;;;;;;22.50;40.08;100558.94;5546956;32;33433;-71
2023/05/10 10:24:45;;;;;;;3.75;1.90;;;;;;;24.58;36.90;100544.78;5537079;32;33800;-71
2023/05/10 10:27:56;;;;;;;3.08;1.87;;;;;;;24.74;35.81;100550.34;5531871;32;34595;-70
2023/05/10 10:31:14;;;;;;;4.70;1.77;;;;;;;24.40;36.19;100541.59;5544784;32;34231;-71
2023/05/10 10:34:28;;;;;;;2.33;1.90;;;;;;;23.48;37.14;100544.16;5542646;32;35245;-70
2023/05/10 10:37:45;;;;;;;4.93;1.90;;;;;;;23.48;37.33;100536.84;5547945;32;33857;-70
2023/05/10 10:41:01;;;;;;;3.08;1.95;;;;;;;22.06;39.70;100533.47;5547712;32;33913;-71
2023/05/10 10:44:23;;;;;;;3.55;1.80;;;;;;;23.25;37.65;100532.41;5541790;32;33745;-70
2023/05/10 10:47:32;;;;;;;1.83;1.70;;;;;;;23.13;37.12;100528.97;5543458;32;34472;-70
2023/05/10 10:50:44;;;;;;;6.32;1.95;;;;;;;22.29;38.24;100524.47;5524052;32;34516;-70
2023/05/10 10:53:48;;;;;;;3.92;1.55;;;;;;;21.44;40.12;100522.38;5541671;32;34479;-71
2023/05/10 10:57:11;;;;;;;4.87;1.70;;;;;;;23.28;37.70;100521.09;5539068;32;33651;-74
2023/05/10 11:00:35;;;;;;;2.03;1.40;;;;;;;25.90;33.09;100526.81;5537273;32;33991;-72
2023/05/10 11:03:38;;;;;;;1.77;1.67;;;;;;;25.64;32.83;100512.25;5542658;32;33798;-71
2023/05/10 11:06:42;;;;;;;4.22;1.50;;;;;;;27.66;30.47;100498.13;5547817;32;33800;-71
2023/05/10 11:09:46;;;;;;;2.40;1.77;;;;;;;29.83;27.41;100492.16;5545659;32;34698;-73
2023/05/10 11:13:02;;;;;;;3.47;1.50;;;;;;;30.84;25.85;100499.75;5528720;32;33718;-71
2023/05/10 11:16:16;;;;;;;2.47;1.20;;;;;;;26.74;29.54;100491.13;5536009;32;33874;-70
2023/05/10 11:19:19;;;;;;;4.40;1.45;;;;;;;22.54;36.24;100485.22;5547088;32;33776;-69
2023/05/10 11:22:25;;;;;;;3.33;1.55;;;;;;;21.48;39.12;100493.03;5536740;32;34415;-70
2023/05/10 11:25:28;;;;;;;3.40;1.75;;;;;;;23.81;35.74;100493.44;5539054;32;35075;-71
2023/05/10 11:28:31;;;;;;;4.60;1.35;;;;;;;27.60;30.22;100488.34;5533054;32;34101;-71
2023/05/10 11:31:34;;;;;;;5.00;1.42;;;;;;;27.57;29.75;100487.00;5538016;32;33799;-71
2023/05/10 11:34:38;;;;;;;4.78;1.80;;;;;;;23.44;34.21;100477.97;5536859;32;34067;-70
2023/05/10 11:37:43;;;;;;;3.62;1.20;;;;;;;22.25;36.65;100475.47;5534978;32;34047;-70
2023/05/10 11:40:46;;;;;;;4.65;1.40;;;;;;;22.52;36.60;100470.28;5528088;32;33877;-71
2023/05/10 11:43:50;;;;;;;1.62;1.30;;;;;;;23.83;34.57;100477.72;5529304;32;34984;-71
2023/05/10 11:46:54;;;;;;;3.33;1.33;;;;;;;23.97;35.26;100463.78;5540824;32;34963;-70
2023/05/10 11:49:57;;;;;;;4.87;1.33;;;;;;;22.77;36.22;100464.53;5546400;32;34542;-70
2023/05/10 11:53:00;;;;;;;13.55;2.22;;;;;;;22.19;37.65;100464.81;5547241;32;33819;-70
2023/05/10 11:56:05;;;;;;;2.67;1.50;;;;;;;21.71;38.12;100460.59;5544131;32;33827;-71
2023/05/10 11:59:08;;;;;;;2.78;1.50;;;;;;;21.19;38.85;100459.75;5544203;32;33931;-70
2023/05/10 12:02:12;;;;;;;4.07;1.70;;;;;;;20.45;41.70;100471.09;5546639;32;35100;-71
2023/05/10 12:05:16;;;;;;;2.78;1.60;;;;;;;20.10;42.26;100463.66;5547693;32;34575;-70
2023/05/10 12:08:27;;;;;;;3.45;1.70;;;;;;;20.14;42.34;100472.13;5536917;32;33680;-71
2023/05/10 12:11:30;;;;;;;1.87;1.52;;;;;;;20.25;41.92;100469.47;5529580;32;34674;-70
2023/05/10 12:14:35;;;;;;;4.53;1.75;;;;;;;20.52;41.04;100461.88;5544929;32;34079;-70
2023/05/10 12:17:40;;;;;;;3.65;1.40;;;;;;;21.72;39.12;100456.84;5543828;32;33676;-71
2023/05/10 12:20:44;;;;;;;5.22;1.40;;;;;;;22.26;37.59;100463.63;5546480;32;34248;-70
2023/05/10 12:23:52;;;;;;;3.80;1.65;;;;;;;21.78;37.73;100463.19;5546278;32;33825;-70
2023/05/10 12:26:55;;;;;;;2.78;1.48;;;;;;;20.90;40.25;100460.63;5541380;32;33946;-69
2023/05/10 12:29:59;;;;;;;1.70;1.30;;;;;;;20.87;39.57;100461.06;5539560;32;34743;-71
2023/05/10 12:33:14;;;;;;;3.47;1.65;;;;;;;20.69;40.03;100456.63;5530371;32;34478;-70
2023/05/10 12:36:23;;;;;;;7.50;1.50;;;;;;;21.32;40.26;100445.16;5534924;32;33895;-71
2023/05/10 12:39:26;;;;;;;5.65;1.35;;;;;;;21.80;38.89;100445.66;5546642;32;34519;-70
2023/05/10 12:42:29;;;;;;;3.42;1.75;;;;;;;22.13;38.07;100447.69;5540197;32;33866;-71
2023/05/10 12:45:31;;;;;;;3.92;1.12;;;;;;;22.20;38.40;100447.53;5544957;32;33470;-70
2023/05/10 12:48:36;;;;;;;2.42;1.55;;;;;;;26.88;31.19;100450.59;5544996;32;34235;-70
2023/05/10 12:51:39;;;;;;;5.10;1.60;;;;;;;26.32;30.83;100447.81;5543998;32;34415;-71
2023/05/10 12:54:41;;;;;;;6.57;1.27;;;;;;;24.61;33.60;100437.63;5545427;32;34622;-70
2023/05/10 12:57:44;;;;;;;1.62;1.35;;;;;;;22.08;37.50;100437.59;5545212;32;33613;-71
2023/05/10 13:00:47;;;;;;;6.93;1.50;;;;;;;21.63;38.42;100433.97;5546671;32;33755;-70
2023/05/10 13:03:50;;;;;;;4.55;1.60;;;;;;;21.21;39.00;100417.13;5545493;32;34576;-70
2023/05/10 13:06:55;;;;;;;3.12;1.33;;;;;;;21.13;39.53;100414.78;5536567;32;33624;-71
2023/05/10 13:09:57;;;;;;;3.72;1.60;;;;;;;21.29;39.87;100421.38;5546535;32;34389;-70
2023/05/10 13:13:01;;;;;;;6.07;1.40;;;;;;;22.57;37.81;100421.69;5545231;32;34774;-70
2023/05/10 13:16:04;;;;;;;4.75;1.25;;;;;;;22.89;37.32;100416.56;5545536;32;34053;-71
2023/05/10 13:19:06;;;;;;;3.10;1.45;;;;;;;22.57;36.96;100418.16;5545373;32;33766;-70
2023/05/10 13:22:09;;;;;;;4.03;1.17;;;;;;;22.75;35.73;100409.87;5545605;32;33694;-69
2023/05/10 13:25:12;;;;;;;4.70;1.35;;;;;;;22.01;37.35;100411.81;5543783;32;34799;-69
2023/05/10 13:28:15;;;;;;;3.42;1.85;;;;;;;23.57;34.79;100401.84;5539700;32;34453;-72
2023/05/10 13:31:18;;;;;;;24.33;1.67;;;;;;;25.42;30.75;100392.84;5545797;32;34245;-69
2023/05/10 13:34:20;;;;;;;3.80;1.20;;;;;;;25.18;31.94;100396.25;5546344;32;33957;-70
2023/05/10 13:37:23;;;;;;;4.03;1.50;;;;;;;23.57;33.55;100394.53;5546343;32;34336;-69
2023/05/10 13:40:25;;;;;;;8.25;1.30;;;;;;;22.27;35.95;100377.97;5536864;32;33782;-68
2023/05/10 13:43:29;;;;;;;4.68;1.62;;;;;;;22.73;35.57;100384.94;5536046;32;34114;-67
2023/05/10 13:46:32;;;;;;;2.47;1.30;;;;;;;23.14;35.00;100372.84;5529448;32;34046;-69
2023/05/10 13:49:34;;;;;;;3.90;1.42;;;;;;;23.22;35.71;100375.91;5529649;32;33679;-68
2023/05/10 13:52:37;;;;;;;17.83;1.55;;;;;;;23.21;34.58;100384.28;5548177;32;34303;-68
2023/05/10 13:55:40;;;;;;;6.40;1.25;;;;;;;25.99;30.68;100383.03;5549008;32;33494;-68
2023/05/10 13:58:43;;;;;;;29.27;2.47;;;;;;;24.33;32.25;100368.25;5548002;32;33908;-68
2023/05/10 14:01:45;;;;;;;5.18;1.00;;;;;;;23.72;33.33;100364.09;5547748;32;33971;-69
2023/05/10 14:04:48;;;;;;;10.85;1.40;;;;;;;25.20;31.66;100364.25;5548046;32;34542;-71
2023/05/10 14:07:51;;;;;;;6.95;1.27;;;;;;;29.24;26.39;100356.72;5546755;32;34511;-69
2023/05/10 14:10:56;;;;;;;6.78;1.17;;;;;;;30.10;24.51;100358.31;5539887;32;34181;-71
2023/05/10 14:13:58;;;;;;;2.20;1.00;;;;;;;29.57;26.12;100357.69;5530095;32;33901;-70
2023/05/10 14:17:01;;;;;;;3.67;1.20;;;;;;;30.26;23.81;100340.53;5536668;32;34788;-72